sensor_id;sensor_type;location;lat;lon;timestamp;temperature;humidity
55711;DHT22;41612;51.994;5.880;2023-01-15T00:01:40;8.00;83.90
55711;DHT22;41612;51.994;5.880;2023-01-15T00:04:07;8.00;84.10
55711;DHT22;41612;51.994;5.880;2023-01-15T00:06:38;8.20;84.70
55711;DHT22;41612;51.994;5.880;2023-01-15T00:09:05;8.10;83.00
55711;DHT22;41612;51.994;5.880;2023-01-15T00:11:31;8.10;81.90
55711;DHT22;41612;51.994;5.880;2023-01-15T00:13:58;8.10;84.20
55711;DHT22;41612;51.994;5.880;2023-01-15T00:16:25;8.10;82.60
55711;DHT22;41612;51.994;5.880;2023-01-15T00:18:52;8.20;83.40
55711;DHT22;41612;51.994;5.880;2023-01-15T00:21:19;8.10;82.30
55711;DHT22;41612;51.994;5.880;2023-01-15T00:23:46;8.10;83.20
55711;DHT22;41612;51.994;5.880;2023-01-15T00:26:31;8.10;82.70
55711;DHT22;41612;51.994;5.880;2023-01-15T00:29:16;8.10;83.20
55711;DHT22;41612;51.994;5.880;2023-01-15T00:31:43;8.10;83.70
55711;DHT22;41612;51.994;5.880;2023-01-15T00:34:10;8.10;84.10
55711;DHT22;41612;51.994;5.880;2023-01-15T00:36:36;8.10;84.40
55711;DHT22;41612;51.994;5.880;2023-01-15T00:39:05;8.00;85.60
55711;DHT22;41612;51.994;5.880;2023-01-15T00:41:31;8.00;83.70
55711;DHT22;41612;51.994;5.880;2023-01-15T00:43:57;8.00;84.60
55711;DHT22;41612;51.994;5.880;2023-01-15T00:46:23;7.90;83.10
55711;DHT22;41612;51.994;5.880;2023-01-15T00:48:48;7.90;84.30
55711;DHT22;41612;51.994;5.880;2023-01-15T00:51:14;7.90;83.50
55711;DHT22;41612;51.994;5.880;2023-01-15T00:53:40;8.00;85.00
55711;DHT22;41612;51.994;5.880;2023-01-15T00:56:06;7.90;84.90
55711;DHT22;41612;51.994;5.880;2023-01-15T00:58:32;8.00;84.60
55711;DHT22;41612;51.994;5.880;2023-01-15T01:00:58;8.00;83.90
55711;DHT22;41612;51.994;5.880;2023-01-15T01:03:25;8.00;84.20
55711;DHT22;41612;51.994;5.880;2023-01-15T01:05:51;7.90;83.60
55711;DHT22;41612;51.994;5.880;2023-01-15T01:08:18;7.90;83.30
55711;DHT22;41612;51.994;5.880;2023-01-15T01:10:44;7.90;82.80
55711;DHT22;41612;51.994;5.880;2023-01-15T01:13:11;7.80;81.20
55711;DHT22;41612;51.994;5.880;2023-01-15T01:15:37;7.80;80.90
55711;DHT22;41612;51.994;5.880;2023-01-15T01:18:04;7.80;82.00
55711;DHT22;41612;51.994;5.880;2023-01-15T01:20:30;7.80;80.20
55711;DHT22;41612;51.994;5.880;2023-01-15T01:22:56;7.80;79.80
55711;DHT22;41612;51.994;5.880;2023-01-15T01:25:22;7.80;81.70
55711;DHT22;41612;51.994;5.880;2023-01-15T01:27:48;7.80;81.80
55711;DHT22;41612;51.994;5.880;2023-01-15T01:30:14;7.80;80.80
55711;DHT22;41612;51.994;5.880;2023-01-15T01:32:43;7.70;80.50
55711;DHT22;41612;51.994;5.880;2023-01-15T01:35:09;7.70;81.60
55711;DHT22;41612;51.994;5.880;2023-01-15T01:37:35;7.80;82.80
55711;DHT22;41612;51.994;5.880;2023-01-15T01:40:02;7.80;85.50
55711;DHT22;41612;51.994;5.880;2023-01-15T01:42:28;7.80;81.50
55711;DHT22;41612;51.994;5.880;2023-01-15T01:45:06;7.80;81.50
55711;DHT22;41612;51.994;5.880;2023-01-15T01:47:33;7.70;80.40
55711;DHT22;41612;51.994;5.880;2023-01-15T01:50:05;7.70;80.20
55711;DHT22;41612;51.994;5.880;2023-01-15T01:52:37;7.70;80.10
55711;DHT22;41612;51.994;5.880;2023-01-15T01:55:05;7.70;82.20
55711;DHT22;41612;51.994;5.880;2023-01-15T01:57:31;7.70;81.50
55711;DHT22;41612;51.994;5.880;2023-01-15T01:59:58;7.70;82.90
55711;DHT22;41612;51.994;5.880;2023-01-15T02:02:24;7.70;81.90
55711;DHT22;41612;51.994;5.880;2023-01-15T02:04:50;7.60;79.80
55711;DHT22;41612;51.994;5.880;2023-01-15T02:07:16;7.70;82.30
55711;DHT22;41612;51.994;5.880;2023-01-15T02:09:42;7.70;83.10
55711;DHT22;41612;51.994;5.880;2023-01-15T02:15:14;7.60;81.60
55711;DHT22;41612;51.994;5.880;2023-01-15T02:17:48;7.70;82.10
55711;DHT22;41612;51.994;5.880;2023-01-15T02:20:22;7.60;79.20
55711;DHT22;41612;51.994;5.880;2023-01-15T02:28:50;7.50;80.90
55711;DHT22;41612;51.994;5.880;2023-01-15T02:31:29;7.50;84.10
55711;DHT22;41612;51.994;5.880;2023-01-15T02:34:11;7.50;82.50
55711;DHT22;41612;51.994;5.880;2023-01-15T02:36:41;7.60;84.00
55711;DHT22;41612;51.994;5.880;2023-01-15T02:39:17;7.50;83.60
55711;DHT22;41612;51.994;5.880;2023-01-15T02:41:47;7.50;83.10
55711;DHT22;41612;51.994;5.880;2023-01-15T02:44:16;7.40;81.00
55711;DHT22;41612;51.994;5.880;2023-01-15T02:46:44;7.40;81.90
55711;DHT22;41612;51.994;5.880;2023-01-15T02:49:14;7.30;81.70
55711;DHT22;41612;51.994;5.880;2023-01-15T02:52:16;7.30;83.30
55711;DHT22;41612;51.994;5.880;2023-01-15T02:54:47;7.30;84.50
55711;DHT22;41612;51.994;5.880;2023-01-15T02:57:15;7.30;83.00
55711;DHT22;41612;51.994;5.880;2023-01-15T02:59:50;7.20;83.50
55711;DHT22;41612;51.994;5.880;2023-01-15T03:02:24;7.30;83.30
55711;DHT22;41612;51.994;5.880;2023-01-15T03:07:43;7.20;82.50
55711;DHT22;41612;51.994;5.880;2023-01-15T03:10:12;7.20;82.10
55711;DHT22;41612;51.994;5.880;2023-01-15T03:15:29;7.20;82.60
55711;DHT22;41612;51.994;5.880;2023-01-15T03:18:19;7.20;81.60
55711;DHT22;41612;51.994;5.880;2023-01-15T03:20:50;7.20;82.00
55711;DHT22;41612;51.994;5.880;2023-01-15T03:23:18;7.20;80.70
55711;DHT22;41612;51.994;5.880;2023-01-15T03:25:48;7.10;80.20
55711;DHT22;41612;51.994;5.880;2023-01-15T03:28:18;7.20;82.40
55711;DHT22;41612;51.994;5.880;2023-01-15T03:30:47;7.20;83.40
55711;DHT22;41612;51.994;5.880;2023-01-15T03:33:13;7.10;81.50
55711;DHT22;41612;51.994;5.880;2023-01-15T03:35:58;7.20;84.40
55711;DHT22;41612;51.994;5.880;2023-01-15T03:38:38;7.20;84.70
55711;DHT22;41612;51.994;5.880;2023-01-15T03:44:03;7.20;83.30
55711;DHT22;41612;51.994;5.880;2023-01-15T03:46:49;7.10;82.90
55711;DHT22;41612;51.994;5.880;2023-01-15T03:52:02;7.20;83.70
55711;DHT22;41612;51.994;5.880;2023-01-15T03:54:57;7.10;82.40
55711;DHT22;41612;51.994;5.880;2023-01-15T03:57:31;7.00;82.10
55711;DHT22;41612;51.994;5.880;2023-01-15T04:00:12;7.00;84.60
55711;DHT22;41612;51.994;5.880;2023-01-15T04:02:43;7.00;81.70
55711;DHT22;41612;51.994;5.880;2023-01-15T04:05:11;7.00;82.10
55711;DHT22;41612;51.994;5.880;2023-01-15T04:07:38;7.00;82.30
55711;DHT22;41612;51.994;5.880;2023-01-15T04:10:07;7.00;82.60
55711;DHT22;41612;51.994;5.880;2023-01-15T04:12:35;7.00;82.10
55711;DHT22;41612;51.994;5.880;2023-01-15T04:15:05;6.90;80.50
55711;DHT22;41612;51.994;5.880;2023-01-15T04:17:30;7.00;81.50
55711;DHT22;41612;51.994;5.880;2023-01-15T04:19:57;7.00;82.60
55711;DHT22;41612;51.994;5.880;2023-01-15T04:22:23;6.90;81.90
55711;DHT22;41612;51.994;5.880;2023-01-15T04:24:49;7.00;82.50
55711;DHT22;41612;51.994;5.880;2023-01-15T04:27:14;6.90;82.00
55711;DHT22;41612;51.994;5.880;2023-01-15T04:29:40;6.90;81.00
55711;DHT22;41612;51.994;5.880;2023-01-15T04:32:06;6.90;83.20
55711;DHT22;41612;51.994;5.880;2023-01-15T04:34:32;6.80;80.90
55711;DHT22;41612;51.994;5.880;2023-01-15T04:37:00;6.80;81.40
55711;DHT22;41612;51.994;5.880;2023-01-15T04:39:26;6.80;80.80
55711;DHT22;41612;51.994;5.880;2023-01-15T04:41:52;6.90;81.20
55711;DHT22;41612;51.994;5.880;2023-01-15T04:44:37;6.90;81.80
55711;DHT22;41612;51.994;5.880;2023-01-15T04:47:03;6.90;83.20
55711;DHT22;41612;51.994;5.880;2023-01-15T04:49:28;6.80;82.40
55711;DHT22;41612;51.994;5.880;2023-01-15T04:51:57;6.80;81.10
55711;DHT22;41612;51.994;5.880;2023-01-15T04:54:23;6.80;83.40
55711;DHT22;41612;51.994;5.880;2023-01-15T04:56:50;6.70;82.00
55711;DHT22;41612;51.994;5.880;2023-01-15T04:59:19;6.70;81.40
55711;DHT22;41612;51.994;5.880;2023-01-15T05:01:45;6.70;81.30
55711;DHT22;41612;51.994;5.880;2023-01-15T05:04:11;6.80;83.20
55711;DHT22;41612;51.994;5.880;2023-01-15T05:06:36;6.80;83.00
55711;DHT22;41612;51.994;5.880;2023-01-15T05:09:04;6.80;82.50
55711;DHT22;41612;51.994;5.880;2023-01-15T05:11:30;6.70;80.50
55711;DHT22;41612;51.994;5.880;2023-01-15T05:13:56;6.80;80.50
55711;DHT22;41612;51.994;5.880;2023-01-15T05:16:24;6.80;81.90
55711;DHT22;41612;51.994;5.880;2023-01-15T05:18:52;6.80;81.50
55711;DHT22;41612;51.994;5.880;2023-01-15T05:21:26;6.80;81.90
55711;DHT22;41612;51.994;5.880;2023-01-15T05:23:54;6.80;83.00
55711;DHT22;41612;51.994;5.880;2023-01-15T05:26:22;6.80;82.10
55711;DHT22;41612;51.994;5.880;2023-01-15T05:28:48;6.80;82.10
55711;DHT22;41612;51.994;5.880;2023-01-15T05:31:16;6.80;81.00
55711;DHT22;41612;51.994;5.880;2023-01-15T05:33:42;6.80;83.50
55711;DHT22;41612;51.994;5.880;2023-01-15T05:36:11;6.70;81.90
55711;DHT22;41612;51.994;5.880;2023-01-15T05:38:38;6.70;83.20
55711;DHT22;41612;51.994;5.880;2023-01-15T05:41:11;6.70;82.50
55711;DHT22;41612;51.994;5.880;2023-01-15T05:43:58;6.60;82.60
55711;DHT22;41612;51.994;5.880;2023-01-15T05:46:24;6.60;82.30
55711;DHT22;41612;51.994;5.880;2023-01-15T05:48:50;6.70;83.30
55711;DHT22;41612;51.994;5.880;2023-01-15T05:51:18;6.60;81.20
55711;DHT22;41612;51.994;5.880;2023-01-15T05:53:44;6.60;82.00
55711;DHT22;41612;51.994;5.880;2023-01-15T05:56:10;6.60;82.60
55711;DHT22;41612;51.994;5.880;2023-01-15T05:58:36;6.50;80.50
55711;DHT22;41612;51.994;5.880;2023-01-15T06:01:09;6.60;82.10
55711;DHT22;41612;51.994;5.880;2023-01-15T06:03:36;6.60;82.40
55711;DHT22;41612;51.994;5.880;2023-01-15T06:06:02;6.50;81.20
55711;DHT22;41612;51.994;5.880;2023-01-15T06:08:28;6.50;82.30
55711;DHT22;41612;51.994;5.880;2023-01-15T06:10:56;6.50;83.60
55711;DHT22;41612;51.994;5.880;2023-01-15T06:13:22;6.50;81.90
55711;DHT22;41612;51.994;5.880;2023-01-15T06:15:48;6.50;81.00
55711;DHT22;41612;51.994;5.880;2023-01-15T06:18:13;6.50;80.70
55711;DHT22;41612;51.994;5.880;2023-01-15T06:20:40;6.60;82.10
55711;DHT22;41612;51.994;5.880;2023-01-15T06:23:07;6.60;81.10
55711;DHT22;41612;51.994;5.880;2023-01-15T06:25:36;6.50;80.10
55711;DHT22;41612;51.994;5.880;2023-01-15T06:28:03;6.40;80.00
55711;DHT22;41612;51.994;5.880;2023-01-15T06:30:29;6.40;80.40
55711;DHT22;41612;51.994;5.880;2023-01-15T06:32:55;6.30;81.50
55711;DHT22;41612;51.994;5.880;2023-01-15T06:35:21;6.30;81.20
55711;DHT22;41612;51.994;5.880;2023-01-15T06:37:48;6.20;79.90
55711;DHT22;41612;51.994;5.880;2023-01-15T06:40:14;6.30;81.50
55711;DHT22;41612;51.994;5.880;2023-01-15T06:42:40;6.20;81.90
55711;DHT22;41612;51.994;5.880;2023-01-15T06:45:35;6.20;82.50
55711;DHT22;41612;51.994;5.880;2023-01-15T06:48:23;6.20;80.70
55711;DHT22;41612;51.994;5.880;2023-01-15T06:50:49;6.30;80.90
55711;DHT22;41612;51.994;5.880;2023-01-15T06:53:15;6.30;82.00
55711;DHT22;41612;51.994;5.880;2023-01-15T06:55:41;6.40;83.20
55711;DHT22;41612;51.994;5.880;2023-01-15T06:58:06;6.40;80.30
55711;DHT22;41612;51.994;5.880;2023-01-15T07:00:32;6.40;80.70
55711;DHT22;41612;51.994;5.880;2023-01-15T07:03:02;6.50;79.60
55711;DHT22;41612;51.994;5.880;2023-01-15T07:05:28;6.50;81.60
55711;DHT22;41612;51.994;5.880;2023-01-15T07:07:57;6.40;80.90
55711;DHT22;41612;51.994;5.880;2023-01-15T07:10:23;6.30;81.40
55711;DHT22;41612;51.994;5.880;2023-01-15T07:12:49;6.30;82.10
55711;DHT22;41612;51.994;5.880;2023-01-15T07:15:15;6.20;81.70
55711;DHT22;41612;51.994;5.880;2023-01-15T07:17:40;6.10;82.40
55711;DHT22;41612;51.994;5.880;2023-01-15T07:20:07;6.00;83.40
55711;DHT22;41612;51.994;5.880;2023-01-15T07:22:33;6.00;83.20
55711;DHT22;41612;51.994;5.880;2023-01-15T07:24:58;5.90;81.70
55711;DHT22;41612;51.994;5.880;2023-01-15T07:27:27;6.00;82.60
55711;DHT22;41612;51.994;5.880;2023-01-15T07:29:53;5.90;82.30
55711;DHT22;41612;51.994;5.880;2023-01-15T07:32:19;6.00;84.00
55711;DHT22;41612;51.994;5.880;2023-01-15T07:34:45;5.90;83.70
55711;DHT22;41612;51.994;5.880;2023-01-15T07:37:11;5.90;83.10
55711;DHT22;41612;51.994;5.880;2023-01-15T07:39:36;5.90;83.20
55711;DHT22;41612;51.994;5.880;2023-01-15T07:42:02;5.90;84.80
55711;DHT22;41612;51.994;5.880;2023-01-15T07:44:46;5.90;84.70
55711;DHT22;41612;51.994;5.880;2023-01-15T07:47:31;5.90;84.50
55711;DHT22;41612;51.994;5.880;2023-01-15T07:50:21;5.80;82.30
55711;DHT22;41612;51.994;5.880;2023-01-15T07:52:50;5.90;85.00
55711;DHT22;41612;51.994;5.880;2023-01-15T07:55:16;5.80;80.60
55711;DHT22;41612;51.994;5.880;2023-01-15T07:57:43;5.80;82.20
55711;DHT22;41612;51.994;5.880;2023-01-15T08:00:19;5.80;81.00
55711;DHT22;41612;51.994;5.880;2023-01-15T08:02:45;5.80;81.30
55711;DHT22;41612;51.994;5.880;2023-01-15T08:05:14;5.90;84.90
55711;DHT22;41612;51.994;5.880;2023-01-15T08:07:41;5.90;83.70
55711;DHT22;41612;51.994;5.880;2023-01-15T08:10:09;5.80;82.00
55711;DHT22;41612;51.994;5.880;2023-01-15T08:12:35;5.80;81.60
55711;DHT22;41612;51.994;5.880;2023-01-15T08:15:19;5.80;80.60
55711;DHT22;41612;51.994;5.880;2023-01-15T08:17:49;5.80;81.20
55711;DHT22;41612;51.994;5.880;2023-01-15T08:20:17;5.80;80.30
55711;DHT22;41612;51.994;5.880;2023-01-15T08:22:44;5.80;82.90
55711;DHT22;41612;51.994;5.880;2023-01-15T08:25:14;5.80;81.80
55711;DHT22;41612;51.994;5.880;2023-01-15T08:27:44;5.90;81.30
55711;DHT22;41612;51.994;5.880;2023-01-15T08:30:13;5.80;80.00
55711;DHT22;41612;51.994;5.880;2023-01-15T08:32:39;5.90;83.10
55711;DHT22;41612;51.994;5.880;2023-01-15T08:35:05;5.90;80.10
55711;DHT22;41612;51.994;5.880;2023-01-15T08:37:34;5.90;81.00
55711;DHT22;41612;51.994;5.880;2023-01-15T08:39:59;5.90;78.90
55711;DHT22;41612;51.994;5.880;2023-01-15T08:42:25;6.00;80.00
55711;DHT22;41612;51.994;5.880;2023-01-15T08:44:51;6.00;78.80
55711;DHT22;41612;51.994;5.880;2023-01-15T08:47:17;6.00;78.80
55711;DHT22;41612;51.994;5.880;2023-01-15T08:49:44;6.00;77.50
55711;DHT22;41612;51.994;5.880;2023-01-15T08:52:10;6.10;79.80
55711;DHT22;41612;51.994;5.880;2023-01-15T08:54:36;6.20;79.30
55711;DHT22;41612;51.994;5.880;2023-01-15T08:57:02;6.20;79.90
55711;DHT22;41612;51.994;5.880;2023-01-15T08:59:27;6.20;80.10
55711;DHT22;41612;51.994;5.880;2023-01-15T09:01:53;6.20;77.30
55711;DHT22;41612;51.994;5.880;2023-01-15T09:04:20;6.20;80.00
55711;DHT22;41612;51.994;5.880;2023-01-15T09:06:47;6.20;77.70
55711;DHT22;41612;51.994;5.880;2023-01-15T09:09:13;6.30;79.50
55711;DHT22;41612;51.994;5.880;2023-01-15T09:11:40;6.30;75.90
55711;DHT22;41612;51.994;5.880;2023-01-15T09:14:07;6.40;77.80
55711;DHT22;41612;51.994;5.880;2023-01-15T09:16:34;6.40;77.40
55711;DHT22;41612;51.994;5.880;2023-01-15T09:18:59;6.40;76.20
55711;DHT22;41612;51.994;5.880;2023-01-15T09:21:25;6.50;75.80
55711;DHT22;41612;51.994;5.880;2023-01-15T09:23:51;6.50;78.30
55711;DHT22;41612;51.994;5.880;2023-01-15T09:26:31;6.70;76.10
55711;DHT22;41612;51.994;5.880;2023-01-15T09:28:58;6.70;74.10
55711;DHT22;41612;51.994;5.880;2023-01-15T09:31:24;6.70;74.00
55711;DHT22;41612;51.994;5.880;2023-01-15T09:33:50;6.80;75.60
55711;DHT22;41612;51.994;5.880;2023-01-15T09:36:24;6.90;75.00
55711;DHT22;41612;51.994;5.880;2023-01-15T09:38:50;6.90;74.30
55711;DHT22;41612;51.994;5.880;2023-01-15T09:41:16;7.10;74.70
55711;DHT22;41612;51.994;5.880;2023-01-15T09:47:02;7.30;74.60
55711;DHT22;41612;51.994;5.880;2023-01-15T09:49:32;7.30;75.20
55711;DHT22;41612;51.994;5.880;2023-01-15T09:52:30;7.40;74.20
55711;DHT22;41612;51.994;5.880;2023-01-15T09:57:41;7.60;75.20
55711;DHT22;41612;51.994;5.880;2023-01-15T10:00:22;7.70;72.20
55711;DHT22;41612;51.994;5.880;2023-01-15T10:03:03;7.90;74.20
55711;DHT22;41612;51.994;5.880;2023-01-15T10:05:37;8.00;71.40
55711;DHT22;41612;51.994;5.880;2023-01-15T10:08:18;8.00;69.90
55711;DHT22;41612;51.994;5.880;2023-01-15T10:10:59;8.00;71.20
55711;DHT22;41612;51.994;5.880;2023-01-15T10:13:59;8.00;70.50
55711;DHT22;41612;51.994;5.880;2023-01-15T10:16:28;8.00;71.90
55711;DHT22;41612;51.994;5.880;2023-01-15T10:18:56;8.00;69.80
55711;DHT22;41612;51.994;5.880;2023-01-15T10:24:12;8.20;72.80
55711;DHT22;41612;51.994;5.880;2023-01-15T10:37:08;8.60;69.80
55711;DHT22;41612;51.994;5.880;2023-01-15T10:45:26;8.70;69.20
55711;DHT22;41612;51.994;5.880;2023-01-15T10:48:11;8.90;70.90
55711;DHT22;41612;51.994;5.880;2023-01-15T10:50:38;8.70;68.40
55711;DHT22;41612;51.994;5.880;2023-01-15T10:53:15;8.60;70.50
55711;DHT22;41612;51.994;5.880;2023-01-15T10:55:49;8.60;69.00
55711;DHT22;41612;51.994;5.880;2023-01-15T11:00:55;8.50;71.60
55711;DHT22;41612;51.994;5.880;2023-01-15T11:03:37;8.40;69.40
55711;DHT22;41612;51.994;5.880;2023-01-15T11:06:07;8.30;69.80
55711;DHT22;41612;51.994;5.880;2023-01-15T11:08:36;8.20;71.00
55711;DHT22;41612;51.994;5.880;2023-01-15T11:14:10;8.20;69.80
55711;DHT22;41612;51.994;5.880;2023-01-15T11:16:55;8.20;71.50
55711;DHT22;41612;51.994;5.880;2023-01-15T11:19:36;8.20;72.20
55711;DHT22;41612;51.994;5.880;2023-01-15T11:22:16;8.30;71.20
55711;DHT22;41612;51.994;5.880;2023-01-15T11:24:52;8.40;71.60
55711;DHT22;41612;51.994;5.880;2023-01-15T11:27:22;8.30;69.00
55711;DHT22;41612;51.994;5.880;2023-01-15T11:29:57;8.20;69.80
55711;DHT22;41612;51.994;5.880;2023-01-15T11:32:33;8.20;72.80
55711;DHT22;41612;51.994;5.880;2023-01-15T11:35:02;8.30;71.90
55711;DHT22;41612;51.994;5.880;2023-01-15T11:37:29;8.50;71.20
55711;DHT22;41612;51.994;5.880;2023-01-15T11:39:57;8.50;72.90
55711;DHT22;41612;51.994;5.880;2023-01-15T11:42:28;8.50;72.40
55711;DHT22;41612;51.994;5.880;2023-01-15T11:45:17;8.60;70.90
55711;DHT22;41612;51.994;5.880;2023-01-15T11:48:22;8.40;70.60
55711;DHT22;41612;51.994;5.880;2023-01-15T11:51:13;8.20;71.80
55711;DHT22;41612;51.994;5.880;2023-01-15T11:53:46;7.90;72.00
55711;DHT22;41612;51.994;5.880;2023-01-15T11:56:16;7.80;72.70
55711;DHT22;41612;51.994;5.880;2023-01-15T11:58:45;7.70;74.10
55711;DHT22;41612;51.994;5.880;2023-01-15T12:01:28;7.70;76.10
55711;DHT22;41612;51.994;5.880;2023-01-15T12:04:03;7.40;78.90
55711;DHT22;41612;51.994;5.880;2023-01-15T12:06:34;7.00;81.50
55711;DHT22;41612;51.994;5.880;2023-01-15T12:14:38;6.50;83.30
55711;DHT22;41612;51.994;5.880;2023-01-15T12:17:19;6.50;84.00
55711;DHT22;41612;51.994;5.880;2023-01-15T12:25:36;6.60;84.10
55711;DHT22;41612;51.994;5.880;2023-01-15T12:30:50;6.80;81.10
55711;DHT22;41612;51.994;5.880;2023-01-15T12:33:44;7.00;82.20
55711;DHT22;41612;51.994;5.880;2023-01-15T12:41:28;7.00;79.90
55711;DHT22;41612;51.994;5.880;2023-01-15T12:44:20;6.90;82.20
55711;DHT22;41612;51.994;5.880;2023-01-15T12:47:10;6.60;81.90
55711;DHT22;41612;51.994;5.880;2023-01-15T12:49:43;6.50;83.40
55711;DHT22;41612;51.994;5.880;2023-01-15T12:52:18;6.50;84.10
55711;DHT22;41612;51.994;5.880;2023-01-15T12:54:53;6.40;84.60
55711;DHT22;41612;51.994;5.880;2023-01-15T12:57:32;6.40;83.50
55711;DHT22;41612;51.994;5.880;2023-01-15T13:03:00;6.30;85.00
55711;DHT22;41612;51.994;5.880;2023-01-15T13:05:35;6.30;85.30
55711;DHT22;41612;51.994;5.880;2023-01-15T13:10:49;6.20;84.80
55711;DHT22;41612;51.994;5.880;2023-01-15T13:15:56;6.50;85.90
55711;DHT22;41612;51.994;5.880;2023-01-15T13:18:52;6.50;84.90
55711;DHT22;41612;51.994;5.880;2023-01-15T13:21:22;6.60;84.00
55711;DHT22;41612;51.994;5.880;2023-01-15T13:37:44;6.70;83.80
55711;DHT22;41612;51.994;5.880;2023-01-15T13:39:57;6.60;84.20
55711;DHT22;41612;51.994;5.880;2023-01-15T13:42:25;6.60;83.20
55711;DHT22;41612;51.994;5.880;2023-01-15T13:47:46;6.60;83.20
55711;DHT22;41612;51.994;5.880;2023-01-15T13:50:28;6.60;82.10
55711;DHT22;41612;51.994;5.880;2023-01-15T13:53:12;6.60;83.80
55711;DHT22;41612;51.994;5.880;2023-01-15T13:55:42;6.50;84.80
55711;DHT22;41612;51.994;5.880;2023-01-15T13:58:25;6.50;84.80
55711;DHT22;41612;51.994;5.880;2023-01-15T14:01:07;6.40;85.10
55711;DHT22;41612;51.994;5.880;2023-01-15T14:14:35;6.20;86.50
55711;DHT22;41612;51.994;5.880;2023-01-15T14:34:20;6.30;86.60
55711;DHT22;41612;51.994;5.880;2023-01-15T14:36:57;6.40;86.40
55711;DHT22;41612;51.994;5.880;2023-01-15T14:41:57;6.30;85.80
55711;DHT22;41612;51.994;5.880;2023-01-15T14:44:43;6.30;86.10
55711;DHT22;41612;51.994;5.880;2023-01-15T14:47:24;6.20;85.20
55711;DHT22;41612;51.994;5.880;2023-01-15T14:50:01;6.20;84.40
55711;DHT22;41612;51.994;5.880;2023-01-15T14:52:27;6.30;85.00
55711;DHT22;41612;51.994;5.880;2023-01-15T14:54:53;6.20;84.20
55711;DHT22;41612;51.994;5.880;2023-01-15T14:57:21;6.30;85.60
55711;DHT22;41612;51.994;5.880;2023-01-15T14:59:53;6.30;85.90
55711;DHT22;41612;51.994;5.880;2023-01-15T15:02:23;6.50;86.50
55711;DHT22;41612;51.994;5.880;2023-01-15T15:04:57;6.40;86.30
55711;DHT22;41612;51.994;5.880;2023-01-15T15:07:26;6.40;86.30
55711;DHT22;41612;51.994;5.880;2023-01-15T15:15:52;6.40;86.00
55711;DHT22;41612;51.994;5.880;2023-01-15T15:21:12;6.30;86.20
55711;DHT22;41612;51.994;5.880;2023-01-15T15:26:36;6.30;85.00
55711;DHT22;41612;51.994;5.880;2023-01-15T15:29:05;6.30;84.70
55711;DHT22;41612;51.994;5.880;2023-01-15T15:31:55;6.30;85.30
55711;DHT22;41612;51.994;5.880;2023-01-15T15:34:32;6.20;84.90
55711;DHT22;41612;51.994;5.880;2023-01-15T15:37:12;6.10;84.70
55711;DHT22;41612;51.994;5.880;2023-01-15T15:42:37;6.10;85.50
55711;DHT22;41612;51.994;5.880;2023-01-15T15:48:29;6.00;86.00
55711;DHT22;41612;51.994;5.880;2023-01-15T15:51:45;6.00;85.50
55711;DHT22;41612;51.994;5.880;2023-01-15T15:54:17;6.00;85.70
55711;DHT22;41612;51.994;5.880;2023-01-15T15:57:01;6.00;85.90
55711;DHT22;41612;51.994;5.880;2023-01-15T15:59:35;6.00;86.30
55711;DHT22;41612;51.994;5.880;2023-01-15T16:02:32;6.00;86.80
55711;DHT22;41612;51.994;5.880;2023-01-15T16:05:26;6.00;86.40
55711;DHT22;41612;51.994;5.880;2023-01-15T16:07:55;6.00;86.20
55711;DHT22;41612;51.994;5.880;2023-01-15T16:10:33;5.90;85.90
55711;DHT22;41612;51.994;5.880;2023-01-15T16:13:02;6.00;86.10
55711;DHT22;41612;51.994;5.880;2023-01-15T16:15:39;6.00;85.60
55711;DHT22;41612;51.994;5.880;2023-01-15T16:18:17;6.10;85.70
55711;DHT22;41612;51.994;5.880;2023-01-15T16:20:44;6.20;85.50
55711;DHT22;41612;51.994;5.880;2023-01-15T16:23:25;6.20;85.70
55711;DHT22;41612;51.994;5.880;2023-01-15T16:26:17;6.30;85.70
55711;DHT22;41612;51.994;5.880;2023-01-15T16:29:17;6.30;85.40
55711;DHT22;41612;51.994;5.880;2023-01-15T16:31:44;6.30;84.80
55711;DHT22;41612;51.994;5.880;2023-01-15T16:34:19;6.30;85.20
55711;DHT22;41612;51.994;5.880;2023-01-15T16:36:45;6.30;85.20
55711;DHT22;41612;51.994;5.880;2023-01-15T16:39:25;6.30;85.10
55711;DHT22;41612;51.994;5.880;2023-01-15T16:41:57;6.20;85.60
55711;DHT22;41612;51.994;5.880;2023-01-15T16:44:30;6.30;85.70
55711;DHT22;41612;51.994;5.880;2023-01-15T16:46:58;6.30;84.90
55711;DHT22;41612;51.994;5.880;2023-01-15T16:49:31;6.30;85.40
55711;DHT22;41612;51.994;5.880;2023-01-15T16:52:01;6.30;84.70
55711;DHT22;41612;51.994;5.880;2023-01-15T16:57:01;6.30;84.20
55711;DHT22;41612;51.994;5.880;2023-01-15T17:02:13;6.40;83.60
55711;DHT22;41612;51.994;5.880;2023-01-15T17:04:42;6.40;82.50
55711;DHT22;41612;51.994;5.880;2023-01-15T17:07:34;6.50;83.80
55711;DHT22;41612;51.994;5.880;2023-01-15T17:10:03;6.50;82.50
55711;DHT22;41612;51.994;5.880;2023-01-15T17:12:37;6.50;83.50
55711;DHT22;41612;51.994;5.880;2023-01-15T17:17:46;6.50;82.20
55711;DHT22;41612;51.994;5.880;2023-01-15T17:20:13;6.50;83.00
55711;DHT22;41612;51.994;5.880;2023-01-15T17:22:44;6.50;81.70
55711;DHT22;41612;51.994;5.880;2023-01-15T17:25:27;6.50;83.00
55711;DHT22;41612;51.994;5.880;2023-01-15T17:27:56;6.50;82.10
55711;DHT22;41612;51.994;5.880;2023-01-15T17:30:24;6.50;82.80
55711;DHT22;41612;51.994;5.880;2023-01-15T17:33:02;6.60;82.80
55711;DHT22;41612;51.994;5.880;2023-01-15T17:35:31;6.50;81.80
55711;DHT22;41612;51.994;5.880;2023-01-15T17:38:00;6.50;81.30
55711;DHT22;41612;51.994;5.880;2023-01-15T17:40:26;6.50;82.40
55711;DHT22;41612;51.994;5.880;2023-01-15T17:42:52;6.40;82.20
55711;DHT22;41612;51.994;5.880;2023-01-15T17:45:22;6.40;82.10
55711;DHT22;41612;51.994;5.880;2023-01-15T17:47:51;6.40;83.00
55711;DHT22;41612;51.994;5.880;2023-01-15T17:50:17;6.40;82.50
55711;DHT22;41612;51.994;5.880;2023-01-15T17:52:44;6.40;83.90
55711;DHT22;41612;51.994;5.880;2023-01-15T17:55:18;6.40;82.70
55711;DHT22;41612;51.994;5.880;2023-01-15T17:58:03;6.30;82.00
55711;DHT22;41612;51.994;5.880;2023-01-15T18:00:48;6.20;81.50
55711;DHT22;41612;51.994;5.880;2023-01-15T18:03:43;6.20;83.10
55711;DHT22;41612;51.994;5.880;2023-01-15T18:06:28;6.10;81.50
55711;DHT22;41612;51.994;5.880;2023-01-15T18:08:57;6.10;83.00
55711;DHT22;41612;51.994;5.880;2023-01-15T18:11:31;6.10;82.50
55711;DHT22;41612;51.994;5.880;2023-01-15T18:14:00;6.00;82.40
55711;DHT22;41612;51.994;5.880;2023-01-15T18:16:27;5.90;81.70
55711;DHT22;41612;51.994;5.880;2023-01-15T18:18:56;6.00;83.20
55711;DHT22;41612;51.994;5.880;2023-01-15T18:21:25;6.10;82.60
55711;DHT22;41612;51.994;5.880;2023-01-15T18:23:51;6.10;82.60
55711;DHT22;41612;51.994;5.880;2023-01-15T18:26:16;6.00;82.20
55711;DHT22;41612;51.994;5.880;2023-01-15T18:28:42;6.00;81.80
55711;DHT22;41612;51.994;5.880;2023-01-15T18:31:14;6.00;82.90
55711;DHT22;41612;51.994;5.880;2023-01-15T18:33:39;6.00;83.40
55711;DHT22;41612;51.994;5.880;2023-01-15T18:36:14;6.00;82.00
55711;DHT22;41612;51.994;5.880;2023-01-15T18:38:43;6.00;82.70
55711;DHT22;41612;51.994;5.880;2023-01-15T18:41:15;5.90;82.20
55711;DHT22;41612;51.994;5.880;2023-01-15T18:44:04;6.00;83.40